createdAt,value
2023-05-21T00:00:10.941Z,6.32
2023-05-21T00:00:30.605Z,6.60
2023-05-21T00:00:43.611Z,6.88
2023-05-21T00:00:57.015Z,6.38
2023-05-21T00:01:10.024Z,6.13
2023-05-21T00:01:23.516Z,6.32
2023-05-21T00:01:41.636Z,6.40
2023-05-21T00:01:54.286Z,6.05
2023-05-21T00:02:07.616Z,6.28
2023-05-21T00:02:23.833Z,6.70
2023-05-21T00:02:41.362Z,7.15
2023-05-21T00:02:56.253Z,6.40
2023-05-21T00:03:09.056Z,5.88
2023-05-21T00:03:22.229Z,6.18
2023-05-21T00:03:35.017Z,6.25
2023-05-21T00:03:50.939Z,5.95
2023-05-21T00:04:12.034Z,5.88
2023-05-21T00:04:25.458Z,6.15
2023-05-21T00:04:38.706Z,9.63
2023-05-21T00:04:51.728Z,12.00
2023-05-21T00:05:04.923Z,10.82
2023-05-21T00:05:18.006Z,9.10
2023-05-21T00:05:31.041Z,9.93
2023-05-21T00:05:44.390Z,9.10
2023-05-21T00:06:00.047Z,9.48
2023-05-21T00:06:13.002Z,13.30
2023-05-21T00:06:28.824Z,13.75
2023-05-21T00:06:41.850Z,9.75
2023-05-21T00:06:57.223Z,8.25
2023-05-21T00:07:10.050Z,7.22
2023-05-21T00:07:22.382Z,6.63
2023-05-21T00:07:34.766Z,6.43
2023-05-21T00:07:47.428Z,6.32
2023-05-21T00:07:59.809Z,6.45
2023-05-21T00:08:12.238Z,6.57
2023-05-21T00:08:24.703Z,6.55
2023-05-21T00:08:37.298Z,6.90
2023-05-21T00:08:49.708Z,7.10
2023-05-21T00:09:02.534Z,6.90
2023-05-21T00:09:15.111Z,7.05
2023-05-21T00:09:28.988Z,6.68
2023-05-21T00:09:41.475Z,6.45
2023-05-21T00:09:57.081Z,6.53
2023-05-21T00:10:10.266Z,6.20
2023-05-21T00:10:23.129Z,6.63
2023-05-21T00:10:35.802Z,6.53
2023-05-21T00:10:49.088Z,6.55
2023-05-21T00:11:01.509Z,6.68
2023-05-21T00:11:13.587Z,7.15
2023-05-21T00:11:26.052Z,6.22
2023-05-21T00:11:39.052Z,6.35
2023-05-21T00:11:51.361Z,6.43
2023-05-21T00:12:04.517Z,6.30
2023-05-21T00:12:17.597Z,6.15
2023-05-21T00:12:30.078Z,6.30
2023-05-21T00:12:42.904Z,5.95
2023-05-21T00:12:55.655Z,5.78
2023-05-21T00:13:08.251Z,5.82
2023-05-21T00:13:20.572Z,5.93
2023-05-21T00:13:33.516Z,6.63
2023-05-21T00:13:48.825Z,6.78
2023-05-21T00:14:04.576Z,6.45
2023-05-21T00:14:17.064Z,6.38
2023-05-21T00:14:29.592Z,6.22
2023-05-21T00:14:42.610Z,6.03
2023-05-21T00:14:55.388Z,6.03
2023-05-21T00:15:09.479Z,5.90
2023-05-21T00:15:22.756Z,5.82
2023-05-21T00:15:35.930Z,5.72
2023-05-21T00:15:49.340Z,6.15
2023-05-21T00:16:01.766Z,6.45
2023-05-21T00:16:14.526Z,6.40
2023-05-21T00:16:27.120Z,6.35
2023-05-21T00:16:39.873Z,6.38
2023-05-21T00:16:52.887Z,6.45
2023-05-21T00:17:05.804Z,6.03
2023-05-21T00:17:23.212Z,6.03
2023-05-21T00:17:35.814Z,5.78
2023-05-21T00:17:48.516Z,5.70
2023-05-21T00:18:03.624Z,5.68
2023-05-21T00:18:16.673Z,6.05
2023-05-21T00:18:29.521Z,6.43
2023-05-21T00:18:41.988Z,6.38
2023-05-21T00:18:55.111Z,6.10
2023-05-21T00:19:07.607Z,6.32
2023-05-21T00:19:20.225Z,6.28
2023-05-21T00:19:32.926Z,6.00
2023-05-21T00:19:45.785Z,5.78
2023-05-21T00:19:58.790Z,6.10
2023-05-21T00:20:11.895Z,6.63
2023-05-21T00:20:24.764Z,6.88
2023-05-21T00:20:37.993Z,6.72
2023-05-21T00:20:52.655Z,6.10
2023-05-21T00:21:05.618Z,5.90
2023-05-21T00:21:18.655Z,6.53
2023-05-21T00:21:31.116Z,6.18
2023-05-21T00:21:46.113Z,5.82
2023-05-21T00:21:58.625Z,6.22
2023-05-21T00:22:11.677Z,6.45
2023-05-21T00:22:24.031Z,6.10
2023-05-21T00:22:36.692Z,6.30
2023-05-21T00:22:51.859Z,6.55
2023-05-21T00:23:04.515Z,6.32
2023-05-21T00:23:17.343Z,5.70
2023-05-21T00:23:29.812Z,5.50
2023-05-21T00:23:42.822Z,5.35
2023-05-21T00:23:56.623Z,5.80
2023-05-21T00:24:12.446Z,5.72
2023-05-21T00:24:25.128Z,5.55
2023-05-21T00:24:39.739Z,5.90
2023-05-21T00:24:52.992Z,5.97
2023-05-21T00:25:06.632Z,5.82
2023-05-21T00:25:19.457Z,5.97
2023-05-21T00:25:32.108Z,5.93
2023-05-21T00:25:44.707Z,5.70
2023-05-21T00:25:57.298Z,5.88
2023-05-21T00:26:12.526Z,6.32
2023-05-21T00:26:27.980Z,6.47
2023-05-21T00:26:44.470Z,6.05
2023-05-21T00:26:57.356Z,6.30
2023-05-21T00:27:10.545Z,6.70
2023-05-21T00:27:23.344Z,6.50
2023-05-21T00:27:35.923Z,5.85
2023-05-21T00:27:48.465Z,6.07
2023-05-21T00:28:01.001Z,6.03
2023-05-21T00:28:13.584Z,6.10
2023-05-21T00:28:26.391Z,6.00
2023-05-21T00:28:40.280Z,6.13
2023-05-21T00:28:52.973Z,6.13
2023-05-21T00:29:06.432Z,5.97
2023-05-21T00:29:19.110Z,5.72
2023-05-21T00:29:31.715Z,6.13
2023-05-21T00:29:44.620Z,6.28
2023-05-21T00:29:56.939Z,6.65
2023-05-21T00:30:10.046Z,6.15
2023-05-21T00:30:22.573Z,5.85
2023-05-21T00:30:35.139Z,6.13
2023-05-21T00:30:47.977Z,6.22
2023-05-21T00:31:00.350Z,6.00
2023-05-21T00:31:12.720Z,5.90
2023-05-21T00:31:25.155Z,5.53
2023-05-21T00:31:37.711Z,5.75
2023-05-21T00:31:49.974Z,5.78
2023-05-21T00:32:02.732Z,5.57
2023-05-21T00:32:15.286Z,5.70
2023-05-21T00:32:33.283Z,5.65
2023-05-21T00:32:45.852Z,5.95
2023-05-21T00:32:58.928Z,6.15
2023-05-21T00:33:11.659Z,6.25
2023-05-21T00:33:24.566Z,6.65
2023-05-21T00:33:37.170Z,6.35
2023-05-21T00:33:49.377Z,5.88
2023-05-21T00:34:02.003Z,5.55
2023-05-21T00:34:15.051Z,5.47
2023-05-21T00:34:28.138Z,5.75
2023-05-21T00:34:41.961Z,5.75
2023-05-21T00:34:57.017Z,5.45
2023-05-21T00:35:10.022Z,5.70
2023-05-21T00:35:22.726Z,5.80
2023-05-21T00:35:35.724Z,5.72
2023-05-21T00:35:48.409Z,5.93
2023-05-21T00:36:01.138Z,6.25
2023-05-21T00:36:13.543Z,6.10
2023-05-21T00:36:28.666Z,5.85
2023-05-21T00:36:41.155Z,6.15
2023-05-21T00:36:53.776Z,6.32
2023-05-21T00:37:06.234Z,6.20
2023-05-21T00:37:19.027Z,5.80
2023-05-21T00:37:31.646Z,5.88
2023-05-21T00:37:44.367Z,5.97
2023-05-21T00:37:57.036Z,6.45
2023-05-21T00:38:09.762Z,6.18
2023-05-21T00:38:22.891Z,6.25
2023-05-21T00:38:35.551Z,6.63
2023-05-21T00:38:48.879Z,6.38
2023-05-21T00:39:01.370Z,5.75
2023-05-21T00:39:14.430Z,5.82
2023-05-21T00:39:26.760Z,5.93
2023-05-21T00:39:40.888Z,5.80
2023-05-21T00:39:53.653Z,6.05
2023-05-21T00:40:07.590Z,5.93
2023-05-21T00:40:22.758Z,6.38
2023-05-21T00:40:35.841Z,6.00
2023-05-21T00:40:48.761Z,5.68
2023-05-21T00:41:02.584Z,6.00
2023-05-21T00:41:17.727Z,6.00
2023-05-21T00:41:32.514Z,5.75
2023-05-21T00:41:45.024Z,5.50
2023-05-21T00:41:57.905Z,5.80
2023-05-21T00:42:10.798Z,6.22
2023-05-21T00:42:25.860Z,6.20
2023-05-21T00:42:38.564Z,6.28
2023-05-21T00:42:51.604Z,6.28
2023-05-21T00:43:04.679Z,5.95
2023-05-21T00:43:17.785Z,5.88
2023-05-21T00:43:30.679Z,5.95
2023-05-21T00:43:45.997Z,6.38
2023-05-21T00:43:58.600Z,6.32
2023-05-21T00:44:11.442Z,5.97
2023-05-21T00:44:23.958Z,6.03
2023-05-21T00:44:39.557Z,6.40
2023-05-21T00:44:52.501Z,6.75
2023-05-21T00:45:06.079Z,6.63
2023-05-21T00:45:21.754Z,6.25
2023-05-21T00:45:34.771Z,6.43
2023-05-21T00:45:48.330Z,6.15
2023-05-21T00:46:03.783Z,6.32
2023-05-21T00:46:23.547Z,6.68
2023-05-21T00:46:37.574Z,6.57
2023-05-21T00:46:50.674Z,6.57
2023-05-21T00:47:03.804Z,6.60
2023-05-21T00:47:16.681Z,6.60
2023-05-21T00:47:29.800Z,6.38
2023-05-21T00:47:45.901Z,5.63
2023-05-21T00:47:59.099Z,5.38
2023-05-21T00:48:15.047Z,5.90
2023-05-21T00:48:28.427Z,6.10
2023-05-21T00:48:40.924Z,5.90
2023-05-21T00:48:56.035Z,6.28
2023-05-21T00:49:11.604Z,6.55
2023-05-21T00:49:24.756Z,5.88
2023-05-21T00:49:37.896Z,5.38
2023-05-21T00:49:51.407Z,5.80
2023-05-21T00:50:05.855Z,6.35
2023-05-21T00:50:18.670Z,6.25
2023-05-21T00:50:31.658Z,5.97
2023-05-21T00:50:47.066Z,5.88
2023-05-21T00:50:59.798Z,6.15
2023-05-21T00:51:16.300Z,6.35
2023-05-21T00:51:29.532Z,6.28
2023-05-21T00:51:42.497Z,6.13
2023-05-21T00:51:55.891Z,6.03
2023-05-21T00:52:08.808Z,6.00
2023-05-21T00:52:21.535Z,5.70
2023-05-21T00:52:34.615Z,6.10
2023-05-21T00:52:48.000Z,6.50
2023-05-21T00:53:03.616Z,6.18
2023-05-21T00:53:17.549Z,6.05
2023-05-21T00:53:32.590Z,5.97
2023-05-21T00:53:45.943Z,5.80
2023-05-21T00:53:59.019Z,5.70
2023-05-21T00:54:14.582Z,5.75
2023-05-21T00:54:28.305Z,5.88
2023-05-21T00:54:42.434Z,6.32
2023-05-21T00:54:55.354Z,6.97
2023-05-21T00:55:11.535Z,7.22
2023-05-21T00:55:25.266Z,6.28
2023-05-21T00:55:38.399Z,5.95
2023-05-21T00:55:55.034Z,6.32
2023-05-21T00:56:07.958Z,6.47
2023-05-21T00:56:21.530Z,6.60
2023-05-21T00:56:34.570Z,6.40
2023-05-21T00:56:48.515Z,6.90
2023-05-21T00:57:05.634Z,6.85
2023-05-21T00:57:20.321Z,6.65
2023-05-21T00:59:51.586Z,7.00
2023-05-21T01:00:06.567Z,6.43
2023-05-21T01:00:25.878Z,6.03
2023-05-21T01:00:38.792Z,5.90
2023-05-21T01:00:53.296Z,6.50
2023-05-21T01:01:05.876Z,7.72
2023-05-21T01:01:18.783Z,7.72
2023-05-21T01:01:32.756Z,6.97
2023-05-21T01:01:45.782Z,6.10
2023-05-21T01:01:58.740Z,6.28
2023-05-21T01:02:11.252Z,6.28
2023-05-21T01:02:23.780Z,6.15
2023-05-21T01:02:37.560Z,5.88
2023-05-21T01:02:50.666Z,6.15
2023-05-21T01:03:04.197Z,6.55
2023-05-21T01:03:17.552Z,7.38
2023-05-21T01:03:30.762Z,7.00
2023-05-21T01:03:43.954Z,6.72
2023-05-21T01:03:56.719Z,5.97
2023-05-21T01:04:09.482Z,5.85
2023-05-21T01:04:23.314Z,6.20
2023-05-21T01:04:36.760Z,6.20
2023-05-21T01:04:51.819Z,6.15
2023-05-21T01:05:04.981Z,5.70
2023-05-21T01:05:17.989Z,5.60
2023-05-21T01:05:31.055Z,5.93
2023-05-21T01:05:43.683Z,6.10
2023-05-21T01:05:56.686Z,6.47
2023-05-21T01:06:10.793Z,6.80
2023-05-21T01:06:23.526Z,6.60
2023-05-21T01:06:35.711Z,6.53
2023-05-21T01:06:47.940Z,6.40
2023-05-21T01:07:00.564Z,6.40
2023-05-21T01:07:13.795Z,6.30
2023-05-21T01:07:27.000Z,6.18
2023-05-21T01:07:42.249Z,5.97
2023-05-21T01:07:58.290Z,6.07
2023-05-21T01:08:11.310Z,6.15
2023-05-21T01:08:23.998Z,6.28
2023-05-21T01:08:41.058Z,6.35
2023-05-21T01:08:55.281Z,6.40
2023-05-21T01:09:10.842Z,6.28
2023-05-21T01:09:23.437Z,5.88
2023-05-21T01:09:35.843Z,5.80
2023-05-21T01:09:49.627Z,5.80
2023-05-21T01:10:03.555Z,6.05
2023-05-21T01:10:16.456Z,6.50
2023-05-21T01:10:29.805Z,6.45
2023-05-21T01:10:43.060Z,6.18
2023-05-21T01:10:55.758Z,6.22
2023-05-21T01:11:09.719Z,6.35
2023-05-21T01:11:33.486Z,7.10
2023-05-21T01:11:48.986Z,6.93
2023-05-21T01:12:02.049Z,6.75
2023-05-21T01:12:17.599Z,6.45
2023-05-21T01:12:32.089Z,6.57
2023-05-21T01:12:47.867Z,6.85
2023-05-21T01:13:01.141Z,6.63
2023-05-21T01:13:14.811Z,6.50
2023-05-21T01:13:27.913Z,6.40
2023-05-21T01:13:41.898Z,6.47
2023-05-21T01:13:54.848Z,6.68
2023-05-21T01:14:08.473Z,6.20
2023-05-21T01:14:22.672Z,6.07
2023-05-21T01:14:36.616Z,6.68
2023-05-21T01:14:49.865Z,6.25
2023-05-21T01:15:03.161Z,5.82
2023-05-21T01:15:15.963Z,5.90
2023-05-21T01:15:31.576Z,6.20
2023-05-21T01:15:44.613Z,6.30
2023-05-21T01:15:58.606Z,6.93
2023-05-21T01:16:11.801Z,6.88
2023-05-21T01:16:24.561Z,6.57
2023-05-21T01:16:38.330Z,6.63
2023-05-21T01:16:51.893Z,6.60
2023-05-21T01:17:06.587Z,6.22
2023-05-21T01:17:19.837Z,6.20
2023-05-21T01:17:32.867Z,6.47
2023-05-21T01:17:46.579Z,6.55
2023-05-21T01:17:59.302Z,6.40
2023-05-21T01:18:15.329Z,6.53
2023-05-21T01:18:27.789Z,6.70
2023-05-21T01:18:40.704Z,6.70
2023-05-21T01:18:53.664Z,6.63
2023-05-21T01:19:07.533Z,6.25
2023-05-21T01:19:22.183Z,6.30
2023-05-21T01:19:34.560Z,6.35
2023-05-21T01:19:49.814Z,6.30
2023-05-21T01:20:02.411Z,6.18
2023-05-21T01:20:20.951Z,6.05
2023-05-21T01:20:36.486Z,6.35
2023-05-21T01:20:49.432Z,6.30
2023-05-21T01:21:02.460Z,6.18
2023-05-21T01:21:14.909Z,6.35
2023-05-21T01:21:32.021Z,6.60
2023-05-21T01:21:47.384Z,6.60
2023-05-21T01:22:03.807Z,6.30
2023-05-21T01:22:18.132Z,5.95
2023-05-21T01:22:32.969Z,6.30
2023-05-21T01:22:53.268Z,6.55
2023-05-21T01:23:05.913Z,5.72
2023-05-21T01:23:19.555Z,5.70
2023-05-21T01:23:34.386Z,6.03
2023-05-21T01:23:47.333Z,6.30
2023-05-21T01:24:00.039Z,6.03
2023-05-21T01:24:12.647Z,5.95
2023-05-21T01:24:25.375Z,6.20
2023-05-21T01:24:39.653Z,6.25
2023-05-21T01:24:54.060Z,6.15
2023-05-21T01:25:07.463Z,6.00
2023-05-21T01:25:20.018Z,5.80
2023-05-21T01:25:32.355Z,6.13
2023-05-21T01:25:44.946Z,5.97
2023-05-21T01:25:57.753Z,5.82
2023-05-21T01:26:10.348Z,6.05
2023-05-21T01:26:23.101Z,6.10
2023-05-21T01:26:35.492Z,6.18
2023-05-21T01:26:48.258Z,6.18
2023-05-21T01:27:03.150Z,6.43
2023-05-21T01:27:16.082Z,6.05
2023-05-21T01:27:29.104Z,5.90
2023-05-21T01:27:41.394Z,5.82
2023-05-21T01:27:54.014Z,5.97
2023-05-21T01:28:06.489Z,6.18
2023-05-21T01:28:19.142Z,6.00
2023-05-21T01:28:31.945Z,6.20
2023-05-21T01:28:44.409Z,6.20
2023-05-21T01:28:57.044Z,6.43
2023-05-21T01:29:09.850Z,6.07
2023-05-21T01:29:22.210Z,6.22
2023-05-21T01:29:34.704Z,6.15
2023-05-21T01:29:47.424Z,5.78
2023-05-21T01:30:02.893Z,6.28
2023-05-21T01:30:19.239Z,6.50
2023-05-21T01:30:31.858Z,6.15
2023-05-21T01:30:44.570Z,5.72
2023-05-21T01:31:03.795Z,5.80
2023-05-21T01:31:23.015Z,6.45
2023-05-21T01:31:41.245Z,5.88
2023-05-21T01:31:59.901Z,5.70
2023-05-21T01:32:19.983Z,5.90
2023-05-21T01:32:38.809Z,5.75
2023-05-21T01:33:00.810Z,6.45
2023-05-21T01:33:18.777Z,5.85
2023-05-21T01:33:39.191Z,5.50
2023-05-21T01:33:55.461Z,5.93
2023-05-21T01:34:12.129Z,6.35
2023-05-21T01:34:32.858Z,6.07
2023-05-21T01:34:51.021Z,5.82
2023-05-21T01:35:08.488Z,6.18
2023-05-21T01:35:22.927Z,5.88
2023-05-21T01:35:39.692Z,5.68
2023-05-21T01:36:12.455Z,5.88
2023-05-21T01:36:29.444Z,6.40
2023-05-21T01:36:49.413Z,6.40
2023-05-21T01:37:13.482Z,5.88
2023-05-21T01:37:30.964Z,6.10
2023-05-21T01:37:48.604Z,5.93
2023-05-21T01:38:08.776Z,5.45
2023-05-21T01:38:28.654Z,5.90
2023-05-21T01:38:44.006Z,5.80
2023-05-21T01:39:01.928Z,6.03
2023-05-21T01:39:18.997Z,6.10
2023-05-21T01:39:38.529Z,6.03
2023-05-21T01:39:55.688Z,6.45
2023-05-21T01:40:14.317Z,6.32
2023-05-21T01:40:32.526Z,5.97
2023-05-21T01:40:52.810Z,5.80
2023-05-21T01:41:11.203Z,6.10
2023-05-21T01:41:27.213Z,6.50
2023-05-21T01:41:43.959Z,6.40
2023-05-21T01:41:57.788Z,5.95
2023-05-21T01:42:11.834Z,5.90
2023-05-21T01:42:29.288Z,5.82
2023-05-21T01:42:47.618Z,5.55
2023-05-21T01:43:00.511Z,5.82
2023-05-21T01:43:14.852Z,6.18
2023-05-21T01:43:29.711Z,6.13
2023-05-21T01:43:48.660Z,6.07
2023-05-21T01:44:02.501Z,6.03
2023-05-21T01:44:18.822Z,5.90
2023-05-21T01:44:32.317Z,6.15
2023-05-21T01:44:45.376Z,5.97
2023-05-21T01:45:00.019Z,6.18
2023-05-21T01:45:16.067Z,6.05
2023-05-21T01:45:31.892Z,5.50
2023-05-21T01:45:46.453Z,5.72
2023-05-21T01:46:00.081Z,6.28
2023-05-21T01:46:26.527Z,6.10
2023-05-21T01:46:40.178Z,5.75
2023-05-21T01:46:53.717Z,6.10
2023-05-21T01:47:07.057Z,6.15
2023-05-21T01:47:24.735Z,5.78
2023-05-21T01:47:39.982Z,5.78
2023-05-21T01:47:56.819Z,6.43
2023-05-21T01:48:13.928Z,6.40
2023-05-21T01:48:29.070Z,5.80
2023-05-21T01:48:42.645Z,5.93
2023-05-21T01:48:57.064Z,6.30
2023-05-21T01:49:10.771Z,6.15
2023-05-21T01:49:23.694Z,5.75
2023-05-21T01:49:36.713Z,5.57
2023-05-21T01:49:50.642Z,5.53
2023-05-21T01:50:04.970Z,5.45
2023-05-21T01:50:19.121Z,5.55
2023-05-21T01:50:32.416Z,5.43
2023-05-21T01:50:46.439Z,5.88
2023-05-21T01:51:04.631Z,5.90
2023-05-21T01:51:17.471Z,5.90
2023-05-21T01:51:30.983Z,5.88
2023-05-21T01:51:44.704Z,5.85
2023-05-21T01:51:57.711Z,6.05
2023-05-21T01:52:10.563Z,6.25
2023-05-21T01:52:23.226Z,6.15
2023-05-21T01:52:36.723Z,5.90
2023-05-21T01:52:50.098Z,5.53
2023-05-21T01:53:03.915Z,5.60
2023-05-21T01:53:16.560Z,5.82
2023-05-21T01:53:28.879Z,5.72
2023-05-21T01:53:41.452Z,5.95
2023-05-21T01:53:54.052Z,5.93
2023-05-21T01:54:09.808Z,5.57
2023-05-21T01:54:22.351Z,5.75
2023-05-21T01:54:35.105Z,5.72
2023-05-21T01:54:47.388Z,6.13
2023-05-21T01:55:00.116Z,6.20
2023-05-21T01:55:12.623Z,5.85
2023-05-21T01:55:25.158Z,5.70
2023-05-21T01:55:38.171Z,5.55
2023-05-21T01:55:50.748Z,5.30
2023-05-21T01:56:03.288Z,5.18
2023-05-21T01:56:16.180Z,5.20
2023-05-21T01:56:28.569Z,5.78
2023-05-21T01:56:40.809Z,6.05
2023-05-21T01:56:53.302Z,5.72
2023-05-21T01:57:08.807Z,5.60
2023-05-21T01:57:21.923Z,5.88
2023-05-21T01:57:34.392Z,5.93
2023-05-21T01:57:46.794Z,6.03
2023-05-21T01:58:02.334Z,5.85
2023-05-21T01:58:15.512Z,5.78
2023-05-21T01:58:28.078Z,5.78
2023-05-21T01:58:41.200Z,5.80
2023-05-21T01:58:53.459Z,6.10
2023-05-21T01:59:06.290Z,6.05
2023-05-21T01:59:18.810Z,6.05
2023-05-21T01:59:31.472Z,6.28
2023-05-21T01:59:45.767Z,6.15
2023-05-21T01:59:59.345Z,5.75
2023-05-21T02:00:13.517Z,5.88
2023-05-21T02:00:29.026Z,5.88
2023-05-21T02:00:42.407Z,5.75
2023-05-21T02:00:57.798Z,5.90
2023-05-21T02:01:12.744Z,6.00
2023-05-21T02:01:25.612Z,5.70
2023-05-21T02:01:38.114Z,5.47
2023-05-21T02:01:52.494Z,5.47
2023-05-21T02:02:05.223Z,6.22
2023-05-21T02:02:17.613Z,6.20
2023-05-21T02:02:30.465Z,6.03
2023-05-21T02:02:43.577Z,6.07
2023-05-21T02:02:56.673Z,6.03
2023-05-21T02:03:12.565Z,5.75
2023-05-21T02:03:27.378Z,5.72
2023-05-21T02:03:39.877Z,5.90
2023-05-21T02:03:52.619Z,6.25
2023-05-21T02:04:10.989Z,6.07
2023-05-21T02:04:23.710Z,5.97
2023-05-21T02:04:35.997Z,6.10
2023-05-21T02:04:48.706Z,6.60
2023-05-21T02:05:01.063Z,6.15
2023-05-21T02:05:13.835Z,5.80
2023-05-21T02:05:26.591Z,5.55
2023-05-21T02:05:38.947Z,5.25
2023-05-21T02:05:51.649Z,5.70
2023-05-21T02:06:03.998Z,5.85
2023-05-21T02:06:16.540Z,6.07
2023-05-21T02:06:29.088Z,5.85
2023-05-21T02:06:41.475Z,5.50
2023-05-21T02:06:53.988Z,5.57
2023-05-21T02:07:06.518Z,5.80
2023-05-21T02:07:19.007Z,5.55
2023-05-21T02:07:33.865Z,5.40
2023-05-21T02:07:49.734Z,5.68
2023-05-21T02:08:04.713Z,5.63
2023-05-21T02:08:17.163Z,5.85
2023-05-21T02:08:29.637Z,6.15
2023-05-21T02:08:42.650Z,6.22
2023-05-21T02:08:55.533Z,6.25
2023-05-21T02:09:08.329Z,5.97
2023-05-21T02:09:20.803Z,5.78
2023-05-21T02:09:33.163Z,6.30
2023-05-21T02:09:45.965Z,6.80
2023-05-21T02:09:58.664Z,6.65
2023-05-21T02:10:12.011Z,6.18
2023-05-21T02:10:24.550Z,6.18
2023-05-21T02:10:37.789Z,6.25
2023-05-21T02:10:50.984Z,6.05
2023-05-21T02:11:03.519Z,6.32
2023-05-21T02:11:16.020Z,6.15
2023-05-21T02:11:28.767Z,5.97
2023-05-21T02:11:43.449Z,5.72
2023-05-21T02:11:56.381Z,5.72
2023-05-21T02:12:09.294Z,5.93
2023-05-21T02:12:21.767Z,6.07
2023-05-21T02:12:34.403Z,6.25
2023-05-21T02:12:46.802Z,6.22
2023-05-21T02:12:59.341Z,5.88
2023-05-21T02:13:11.735Z,5.90
2023-05-21T02:13:26.033Z,5.68
2023-05-21T02:13:39.400Z,5.88
2023-05-21T02:13:52.439Z,6.25
2023-05-21T02:14:04.728Z,6.10
2023-05-21T02:14:20.297Z,5.78
2023-05-21T02:14:32.581Z,5.80
2023-05-21T02:14:44.717Z,6.00
2023-05-21T02:14:57.615Z,6.20
2023-05-21T02:15:10.158Z,6.40
2023-05-21T02:15:22.744Z,6.10
2023-05-21T02:15:35.230Z,6.20
2023-05-21T02:15:47.887Z,5.93
2023-05-21T02:16:00.915Z,5.63
2023-05-21T02:16:13.208Z,5.93
2023-05-21T02:16:26.409Z,6.30
2023-05-21T02:16:38.775Z,6.47
2023-05-21T02:16:51.027Z,6.10
2023-05-21T02:17:03.771Z,6.22
2023-05-21T02:17:16.597Z,6.13
2023-05-21T02:17:29.485Z,6.00
2023-05-21T02:17:42.494Z,5.63
2023-05-21T02:17:57.458Z,5.60
2023-05-21T02:18:13.063Z,5.82
2023-05-21T02:18:25.487Z,5.85
2023-05-21T02:18:38.119Z,5.85
2023-05-21T02:18:50.546Z,5.75
2023-05-21T02:19:03.515Z,5.75
2023-05-21T02:19:19.337Z,5.75
2023-05-21T02:19:31.845Z,5.60
2023-05-21T02:19:44.290Z,5.78
2023-05-21T02:19:56.957Z,5.97
2023-05-21T02:20:10.470Z,5.90
2023-05-21T02:20:25.494Z,6.03
2023-05-21T02:20:38.050Z,6.45
2023-05-21T02:20:50.418Z,6.10
2023-05-21T02:21:02.876Z,5.50
2023-05-21T02:21:15.662Z,5.32
2023-05-21T02:21:27.962Z,5.55
2023-05-21T02:21:40.040Z,5.85
2023-05-21T02:21:52.363Z,5.90
2023-05-21T02:22:05.380Z,5.90
2023-05-21T02:22:17.856Z,5.82
2023-05-21T02:22:32.738Z,5.80
2023-05-21T02:22:46.726Z,5.93
2023-05-21T02:22:59.333Z,6.10
2023-05-21T02:23:13.367Z,5.97
2023-05-21T02:23:25.780Z,6.10
2023-05-21T02:23:38.630Z,6.28
2023-05-21T02:23:51.173Z,5.97
2023-05-21T02:24:03.949Z,6.07
2023-05-21T02:24:16.543Z,6.00
2023-05-21T02:24:29.534Z,5.78
2023-05-21T02:24:42.022Z,5.72
2023-05-21T02:24:54.434Z,6.20
2023-05-21T02:25:08.481Z,6.50
2023-05-21T02:25:21.250Z,6.30
2023-05-21T02:25:33.894Z,6.28
2023-05-21T02:25:46.664Z,5.97
2023-05-21T02:25:59.688Z,5.75
2023-05-21T02:26:12.086Z,5.65
2023-05-21T02:26:24.776Z,5.70
2023-05-21T02:26:39.975Z,5.95
2023-05-21T02:26:52.450Z,6.38
2023-05-21T02:27:05.394Z,6.50
2023-05-21T02:27:17.611Z,6.13
2023-05-21T02:27:30.033Z,5.95
2023-05-21T02:27:43.502Z,6.07
2023-05-21T02:27:55.967Z,6.45
2023-05-21T02:28:08.493Z,6.50
2023-05-21T02:28:21.487Z,6.38
2023-05-21T02:28:34.372Z,6.22
2023-05-21T02:28:46.799Z,5.82
2023-05-21T02:29:04.913Z,5.70
2023-05-21T02:29:20.047Z,5.97
2023-05-21T02:29:32.566Z,5.90
2023-05-21T02:29:45.449Z,6.05
2023-05-21T02:29:58.153Z,6.15
2023-05-21T02:30:12.524Z,6.28
2023-05-21T02:30:25.164Z,5.88
2023-05-21T02:30:38.574Z,6.07
2023-05-21T02:30:51.348Z,6.60
2023-05-21T02:31:03.712Z,6.22
2023-05-21T02:31:16.379Z,5.78
2023-05-21T02:31:28.790Z,5.85
2023-05-21T02:31:41.425Z,6.00
2023-05-21T02:31:54.069Z,6.10
2023-05-21T02:32:10.689Z,6.25
2023-05-21T02:32:28.339Z,6.05
2023-05-21T02:32:40.976Z,5.82
2023-05-21T02:32:54.148Z,6.13
2023-05-21T02:33:06.600Z,6.00
2023-05-21T02:33:19.765Z,6.05
2023-05-21T02:33:32.309Z,5.72
2023-05-21T02:33:45.028Z,5.55
2023-05-21T02:33:57.673Z,5.75
2023-05-21T02:34:10.635Z,6.00
2023-05-21T02:34:25.150Z,5.75
2023-05-21T02:34:38.103Z,5.78
2023-05-21T02:34:50.607Z,6.10
2023-05-21T02:35:04.768Z,6.10
2023-05-21T02:35:19.078Z,6.13
2023-05-21T02:35:31.836Z,6.60
2023-05-21T02:35:44.569Z,6.45
2023-05-21T02:35:57.176Z,5.82
2023-05-21T02:36:10.477Z,5.80
2023-05-21T02:36:22.909Z,5.88
2023-05-21T02:36:35.497Z,5.85
2023-05-21T02:36:48.157Z,6.13
2023-05-21T02:37:00.652Z,6.15
2023-05-21T02:37:13.786Z,6.47
2023-05-21T02:37:27.560Z,6.40
2023-05-21T02:37:40.803Z,6.22
2023-05-21T02:37:55.343Z,6.32
2023-05-21T02:38:08.023Z,6.20
2023-05-21T02:38:22.904Z,6.03
2023-05-21T02:38:35.674Z,6.00
2023-05-21T02:38:49.003Z,6.00
2023-05-21T02:39:01.838Z,5.90
2023-05-21T02:39:14.768Z,5.90
2023-05-21T02:39:27.486Z,6.10
2023-05-21T02:39:40.020Z,6.22
2023-05-21T02:39:52.718Z,6.30
2023-05-21T02:40:10.483Z,6.28
2023-05-21T02:40:23.511Z,5.90
2023-05-21T02:40:36.432Z,5.57
2023-05-21T02:40:49.705Z,5.45
2023-05-21T02:41:05.437Z,5.78
2023-05-21T02:41:18.021Z,6.15
2023-05-21T02:41:30.642Z,6.50
2023-05-21T02:41:43.255Z,6.30
2023-05-21T02:41:55.807Z,6.10
2023-05-21T02:42:08.110Z,6.15
2023-05-21T02:42:22.968Z,6.25
2023-05-21T02:42:40.557Z,5.85
2023-05-21T02:42:56.605Z,6.07
2023-05-21T02:43:09.457Z,6.25
2023-05-21T02:43:24.792Z,6.38
2023-05-21T02:43:37.589Z,6.45
2023-05-21T02:43:50.147Z,6.15
2023-05-21T02:44:02.844Z,6.45
2023-05-21T02:44:16.316Z,6.60
2023-05-21T02:44:33.880Z,6.30
2023-05-21T02:44:46.655Z,6.03
2023-05-21T02:45:00.256Z,5.97
2023-05-21T02:45:13.622Z,6.20
2023-05-21T02:45:29.531Z,5.93
2023-05-21T02:45:42.651Z,5.68
2023-05-21T02:45:58.444Z,5.80
2023-05-21T02:46:12.354Z,6.10
2023-05-21T02:46:24.950Z,6.32
2023-05-21T02:46:38.798Z,6.28
2023-05-21T02:46:51.828Z,6.40
2023-05-21T02:47:04.429Z,6.40
2023-05-21T02:47:17.002Z,6.32
2023-05-21T02:47:29.651Z,6.10
2023-05-21T02:47:42.640Z,5.80
2023-05-21T02:47:55.342Z,6.10
2023-05-21T02:48:07.762Z,6.00
2023-05-21T02:48:26.920Z,5.78
2023-05-21T02:48:39.565Z,6.07
2023-05-21T02:48:53.631Z,6.35
2023-05-21T02:49:07.808Z,6.10
2023-05-21T02:49:20.692Z,5.47
2023-05-21T02:49:34.022Z,5.50
2023-05-21T02:49:47.423Z,6.15
2023-05-21T02:50:01.377Z,6.15
2023-05-21T02:50:14.707Z,5.90
2023-05-21T02:50:34.802Z,6.13
2023-05-21T02:50:47.663Z,5.93
2023-05-21T02:51:00.431Z,5.97
2023-05-21T02:51:13.783Z,6.43
2023-05-21T02:51:26.690Z,6.43
2023-05-21T02:51:39.552Z,6.20
2023-05-21T02:51:52.793Z,6.20
2023-05-21T02:52:06.172Z,6.22
2023-05-21T02:52:19.122Z,5.88
2023-05-21T02:52:34.989Z,5.78
2023-05-21T02:52:50.437Z,5.72
2023-05-21T02:53:03.408Z,5.68
2023-05-21T02:53:16.617Z,6.10
2023-05-21T02:53:31.591Z,6.88
2023-05-21T02:53:44.196Z,7.00
2023-05-21T02:54:01.961Z,6.32
2023-05-21T02:54:15.692Z,6.05
2023-05-21T02:54:28.722Z,5.85
2023-05-21T02:54:41.467Z,6.05
2023-05-21T02:54:54.496Z,6.05
2023-05-21T02:55:08.056Z,5.93
2023-05-21T02:55:20.922Z,5.72
2023-05-21T02:55:33.948Z,5.72
2023-05-21T02:55:47.453Z,5.88
2023-05-21T02:55:59.843Z,5.82
2023-05-21T02:56:14.930Z,6.03
2023-05-21T02:56:30.242Z,6.00
2023-05-21T02:56:42.987Z,5.93
2023-05-21T02:56:55.447Z,6.25
2023-05-21T02:57:07.921Z,6.30
2023-05-21T02:57:20.449Z,5.97
2023-05-21T02:57:33.439Z,5.50
2023-05-21T02:57:46.141Z,5.28
2023-05-21T02:57:58.939Z,5.63
2023-05-21T02:58:11.417Z,6.03
2023-05-21T02:58:23.841Z,6.30
2023-05-21T02:58:36.807Z,6.13
2023-05-21T02:58:49.777Z,6.38
2023-05-21T02:59:02.871Z,6.40
2023-05-21T02:59:15.136Z,6.70
2023-05-21T02:59:27.654Z,6.55
2023-05-21T02:59:40.017Z,6.15
2023-05-21T02:59:52.906Z,5.78
2023-05-21T03:00:07.040Z,5.65
2023-05-21T03:00:19.766Z,5.57
2023-05-21T03:00:32.938Z,5.70
2023-05-21T03:00:47.445Z,5.80
2023-05-21T03:00:59.963Z,6.22
2023-05-21T03:01:13.579Z,6.13
2023-05-21T03:01:26.159Z,6.07
2023-05-21T03:01:38.836Z,6.07
2023-05-21T03:01:51.437Z,6.18
2023-05-21T03:02:04.012Z,6.10
2023-05-21T03:02:16.541Z,6.10
2023-05-21T03:02:29.211Z,6.07
2023-05-21T03:02:41.605Z,5.75
2023-05-21T03:02:54.508Z,5.85
2023-05-21T03:03:07.625Z,5.90
2023-05-21T03:03:21.165Z,6.20
2023-05-21T03:03:34.803Z,6.60
2023-05-21T03:03:48.691Z,6.10
2023-05-21T03:04:01.366Z,5.78
2023-05-21T03:04:14.432Z,6.15
2023-05-21T03:04:26.606Z,6.05
2023-05-21T03:04:38.907Z,6.05
2023-05-21T03:04:53.578Z,5.90
2023-05-21T03:05:09.018Z,5.20
2023-05-21T03:05:21.510Z,5.55